createdAt,value
2022-11-10T00:15:52.352Z,1021.09
2022-11-10T00:44:22.736Z,1021.32
2022-11-10T01:12:52.044Z,1021.7
2022-11-10T01:41:23.728Z,1022
2022-11-10T02:09:53.930Z,1022.16
2022-11-10T02:38:26.220Z,1022.52
2022-11-10T03:06:56.413Z,1022.58
2022-11-10T03:35:24.365Z,1023.13
2022-11-10T04:03:54.597Z,1023.46
2022-11-10T04:32:26.776Z,1023.69
2022-11-10T05:00:55.821Z,1024.1
2022-11-10T05:29:16.368Z,1024.36
2022-11-10T05:57:40.130Z,1024.7
2022-11-10T06:26:06.957Z,1025.27
2022-11-10T06:54:35.108Z,1025.88
2022-11-10T07:22:57.291Z,1026.24
2022-11-10T07:51:24.571Z,1026.89
2022-11-10T08:19:52.820Z,1027.03
2022-11-10T08:48:18.660Z,1027.35
2022-11-10T09:16:49.474Z,1027.76
2022-11-10T09:45:19.359Z,1028.06
2022-11-10T10:13:52.905Z,1028.23
2022-11-10T10:42:24.078Z,1028.21
2022-11-10T11:10:54.736Z,1028.06
2022-11-10T11:39:25.624Z,1028.07
2022-11-10T12:07:58.321Z,1027.92
2022-11-10T12:36:22.924Z,1027.78
2022-11-10T13:04:51.654Z,1027.81
2022-11-10T13:33:22.545Z,1027.82
2022-11-10T14:01:52.409Z,1028.09
2022-11-10T14:30:19.325Z,1028.24
2022-11-10T14:58:46.242Z,1028.35
2022-11-10T15:27:12.732Z,1028.63
2022-11-10T15:55:35.395Z,1028.81
2022-11-10T16:23:51.532Z,1029.05
2022-11-10T16:52:08.951Z,1029.35
2022-11-10T17:20:33.143Z,1029.49
2022-11-10T17:49:03.547Z,1029.54
2022-11-10T18:17:06.374Z,1029.98
2022-11-10T18:45:23.724Z,1029.92
2022-11-10T19:13:38.097Z,1029.99
2022-11-10T19:41:58.343Z,1030.18
2022-11-10T20:10:16.732Z,1030.15
2022-11-10T20:38:35.052Z,1030.47
2022-11-10T21:06:55.348Z,1030.75
2022-11-10T21:35:10.284Z,1030.91
2022-11-10T22:31:59.176Z,1030.53
2022-11-10T23:00:36.889Z,1030.63
2022-11-10T23:28:43.165Z,1030.67
2022-11-10T23:57:06.028Z,1030.72
